createdAt,value
2018-01-31T01:52:20.812Z,98492.83
2018-01-31T01:54:40.247Z,98482.30
2018-01-31T01:57:08.491Z,98478.95
2018-01-31T01:59:37.498Z,98473.72
2018-01-31T02:02:05.750Z,98470.16
2018-01-31T02:04:34.771Z,98460.47
2018-01-31T02:07:03.030Z,98460.68
2018-01-31T02:09:32.040Z,98454.47
2018-01-31T02:12:00.295Z,98443.98
2018-01-31T02:14:29.301Z,98437.16
2018-01-31T02:16:57.558Z,98435.48
2018-01-31T02:19:26.570Z,98420.49
2018-01-31T02:21:54.820Z,98436.52
2018-01-31T02:24:23.824Z,98426.69
2018-01-31T02:26:52.860Z,98416.27
2018-01-31T02:29:21.126Z,98414.19
2018-01-31T02:31:49.365Z,98415.87
2018-01-31T02:34:18.369Z,98404.81
2018-01-31T02:36:47.473Z,98395.55
2018-01-31T02:39:38.241Z,98396.04
2018-01-31T02:42:06.486Z,98395.78
2018-01-31T02:44:34.734Z,98393.51
2018-01-31T02:47:02.981Z,98368.34
2018-01-31T02:49:31.993Z,98378.92
2018-01-31T02:52:00.247Z,98362.22
2018-01-31T02:54:28.481Z,98357.13
2018-01-31T02:56:56.741Z,98364.13
2018-01-31T02:59:24.979Z,98363.64
2018-01-31T03:01:53.984Z,98369.75
2018-01-31T03:04:22.220Z,98365.15
2018-01-31T03:06:50.473Z,98372.75
2018-01-31T03:09:18.821Z,98361.98
2018-01-31T03:11:47.080Z,98363.41
2018-01-31T03:14:16.081Z,98359.11
2018-01-31T03:16:44.326Z,98364.43
2018-01-31T03:19:12.574Z,98358.69
2018-01-31T03:21:40.819Z,98363.07
2018-01-31T03:24:09.053Z,98346.79
2018-01-31T03:26:37.318Z,98343.48
2018-01-31T03:29:05.550Z,98350.27
2018-01-31T03:31:33.803Z,98338.54
2018-01-31T03:34:02.817Z,98339.48
2018-01-31T03:36:31.060Z,98334.16
2018-01-31T03:39:00.079Z,98331.35
2018-01-31T03:41:28.323Z,98320.91
2018-01-31T03:43:57.348Z,98325.42
2018-01-31T03:46:25.587Z,98324.17
2018-01-31T03:48:53.828Z,98321.88
2018-01-31T03:51:22.079Z,98321.05
2018-01-31T03:53:50.330Z,98305.54
2018-01-31T03:56:19.336Z,98303.13
2018-01-31T03:58:47.577Z,98298.21
2018-01-31T04:01:15.823Z,98288.56
2018-01-31T04:03:44.082Z,98288.72
2018-01-31T04:06:12.325Z,98290.30
2018-01-31T04:08:41.342Z,98284.63
2018-01-31T04:11:09.587Z,98274.83
2018-01-31T04:13:38.594Z,98278.14
2018-01-31T04:16:06.851Z,98274.16
2018-01-31T04:18:35.854Z,98272.16
2018-01-31T04:21:04.878Z,98265.48
2018-01-31T04:23:33.118Z,98272.11
2018-01-31T04:26:02.135Z,98260.84
2018-01-31T04:28:30.379Z,98269.17
2018-01-31T04:30:58.618Z,98257.81
2018-01-31T04:33:26.871Z,98254.77
2018-01-31T04:35:55.113Z,98255.50
2018-01-31T04:38:24.126Z,98256.23
2018-01-31T04:40:52.366Z,98239.94
2018-01-31T04:43:20.614Z,98242.83
2018-01-31T04:45:48.853Z,98240.20
2018-01-31T04:48:17.110Z,98234.86
2018-01-31T04:50:46.113Z,98212.28
2018-01-31T04:53:14.366Z,98225.69
2018-01-31T04:55:43.381Z,98218.09
2018-01-31T04:58:12.394Z,98220.62
2018-01-31T05:00:40.648Z,98220.14
2018-01-31T05:03:09.649Z,98217.32
2018-01-31T05:05:37.897Z,98218.20
2018-01-31T05:08:06.897Z,98211.07
2018-01-31T05:10:35.908Z,98210.23
2018-01-31T05:13:04.155Z,98197.43
2018-01-31T05:15:32.406Z,98188.58
2018-01-31T05:18:00.660Z,98185.27
2018-01-31T05:20:28.902Z,98181.50
2018-01-31T05:22:57.140Z,98179.45
2018-01-31T05:25:25.390Z,98172.78
2018-01-31T05:27:53.639Z,98166.03
2018-01-31T05:30:21.887Z,98154.30
2018-01-31T05:32:50.904Z,98167.71
2018-01-31T05:35:19.148Z,98164.91
2018-01-31T05:37:47.393Z,98156.98
2018-01-31T05:40:15.644Z,98149.31
2018-01-31T05:42:43.890Z,98141.92
2018-01-31T05:45:12.910Z,98135.02
2018-01-31T05:47:41.159Z,98131.53
2018-01-31T05:50:10.170Z,98138.12
2018-01-31T05:52:38.711Z,98130.74
2018-01-31T05:55:06.954Z,98143.73
2018-01-31T05:57:35.208Z,98110.02
2018-01-31T06:00:03.450Z,98115.09
2018-01-31T06:02:32.468Z,98119.36
2018-01-31T06:05:00.719Z,98095.56
2018-01-31T06:07:29.743Z,98104.70
2018-01-31T06:09:57.979Z,98078.84
2018-01-31T06:12:26.234Z,98101.48
2018-01-31T06:14:54.470Z,98086.55
2018-01-31T06:17:22.713Z,98099.42
2018-01-31T06:19:51.718Z,98089.23
2018-01-31T06:22:19.963Z,98063.70
2018-01-31T06:24:48.221Z,98084.12
2018-01-31T06:27:16.451Z,98080.44
2018-01-31T06:29:44.701Z,98074.22
2018-01-31T06:32:13.706Z,98077.16
2018-01-31T06:34:42.720Z,98075.02
2018-01-31T06:37:10.961Z,98056.08
2018-01-31T06:39:39.972Z,98057.75
2018-01-31T06:42:08.984Z,98081.18
2018-01-31T06:44:37.242Z,98088.77
2018-01-31T06:47:06.240Z,98069.62
2018-01-31T06:49:34.490Z,98071.71
2018-01-31T06:52:02.730Z,98060.59
2018-01-31T06:54:30.981Z,98056.86
2018-01-31T06:56:59.233Z,98066.04
2018-01-31T06:59:28.243Z,98065.70
2018-01-31T07:01:56.494Z,98059.33
2018-01-31T07:04:25.502Z,98057.30
2018-01-31T07:06:53.758Z,98054.45
2018-01-31T07:09:22.775Z,98045.30
2018-01-31T07:11:51.031Z,98052.80
2018-01-31T07:14:20.039Z,98043.16
2018-01-31T07:16:48.291Z,98043.04
2018-01-31T07:19:17.297Z,98049.28
2018-01-31T07:21:46.320Z,98050.58
2018-01-31T07:24:14.557Z,98040.98
2018-01-31T07:26:43.575Z,98033.90
2018-01-31T07:29:11.919Z,98037.72
2018-01-31T07:31:40.155Z,98024.77
2018-01-31T07:34:08.395Z,98024.38
2018-01-31T07:36:36.647Z,98032.03
2018-01-31T07:39:04.891Z,98024.11
2018-01-31T07:41:33.143Z,98006.16
2018-01-31T07:44:01.381Z,97996.62
2018-01-31T07:46:30.408Z,97997.42
2018-01-31T07:48:58.648Z,97979.45
2018-01-31T07:51:26.889Z,97973.20
2018-01-31T07:53:55.127Z,97974.11
2018-01-31T07:56:23.383Z,97955.30
2018-01-31T07:58:52.387Z,97967.11
2018-01-31T08:01:20.640Z,97971.78
2018-01-31T08:03:49.641Z,97957.67
2018-01-31T08:06:18.668Z,97960.69
2018-01-31T08:08:46.913Z,97979.28
2018-01-31T08:11:15.931Z,97958.29
2018-01-31T08:13:44.174Z,97954.95
2018-01-31T08:16:13.191Z,97950.81
2018-01-31T08:18:41.448Z,97942.83
2018-01-31T08:21:10.468Z,97949.35
2018-01-31T08:23:38.718Z,97941.95
2018-01-31T08:26:07.764Z,97931.46
2018-01-31T08:28:35.979Z,97929.02
2018-01-31T08:31:04.989Z,97931.10
2018-01-31T08:33:33.245Z,97931.04
2018-01-31T08:36:02.265Z,97951.19
2018-01-31T08:38:30.518Z,97928.11
2018-01-31T08:40:59.530Z,97914.67
2018-01-31T08:43:27.790Z,97920.16
2018-01-31T08:45:56.803Z,97922.73
2018-01-31T08:48:25.045Z,97913.43
2018-01-31T08:50:54.083Z,97932.67
2018-01-31T08:53:22.327Z,97909.20
2018-01-31T08:55:51.345Z,97901.15
2018-01-31T08:58:19.586Z,97915.48
2018-01-31T09:00:48.594Z,97916.23
2018-01-31T09:03:17.609Z,97896.95
2018-01-31T09:05:45.861Z,97876.83
2018-01-31T09:08:14.900Z,97891.06
2018-01-31T09:10:43.137Z,97902.42
2018-01-31T09:13:11.390Z,97899.47
2018-01-31T09:15:40.412Z,97889.01
2018-01-31T09:18:08.683Z,97879.73
2018-01-31T09:20:37.698Z,97868.47
2018-01-31T09:23:05.950Z,97860.07
2018-01-31T09:25:34.201Z,97857.56
2018-01-31T09:28:02.461Z,97856.70
2018-01-31T09:30:30.710Z,97845.48
2018-01-31T09:32:58.941Z,97846.75
2018-01-31T09:35:27.959Z,97841.24
2018-01-31T09:37:56.202Z,97842.58
2018-01-31T09:40:24.452Z,97848.44
2018-01-31T09:42:52.701Z,97838.39
2018-01-31T09:45:20.981Z,97841.76
2018-01-31T09:47:49.231Z,97825.38
2018-01-31T09:50:17.491Z,97829.20
2018-01-31T09:52:46.508Z,97810.73
2018-01-31T09:55:14.766Z,97798.11
2018-01-31T09:57:43.014Z,97809.46
2018-01-31T10:00:11.268Z,97796.00
2018-01-31T10:02:39.519Z,97796.45
2018-01-31T10:05:07.766Z,97797.70
2018-01-31T10:07:36.022Z,97796.84
2018-01-31T10:10:05.045Z,97794.34
2018-01-31T10:12:33.303Z,97792.25
2018-01-31T10:15:02.325Z,97784.66
2018-01-31T10:17:30.578Z,97788.88
2018-01-31T10:19:59.609Z,97781.27
2018-01-31T10:22:27.859Z,97765.71
2018-01-31T10:24:56.120Z,97772.88
2018-01-31T10:27:25.140Z,97759.83
2018-01-31T10:29:53.392Z,97776.23
2018-01-31T10:32:21.661Z,97765.70
2018-01-31T10:34:49.953Z,97776.66
2018-01-31T10:37:18.278Z,97757.29
2018-01-31T10:39:46.561Z,97754.78
2018-01-31T10:42:14.860Z,97743.85
2018-01-31T10:44:43.150Z,97746.78
2018-01-31T10:47:11.445Z,97735.86
2018-01-31T10:49:39.745Z,97739.20
2018-01-31T10:52:08.013Z,97701.34
2018-01-31T10:57:31.366Z,97691.67
2018-01-31T10:59:33.607Z,97719.39
2018-01-31T11:02:01.890Z,97728.64
2018-01-31T11:04:30.900Z,97718.09
2018-01-31T11:06:59.146Z,97697.07
2018-01-31T11:09:27.446Z,97697.09
2018-01-31T11:11:55.654Z,97706.76
2018-01-31T11:14:23.899Z,97676.49
2018-01-31T11:16:52.156Z,97667.67
2018-01-31T11:19:21.163Z,97671.03
2018-01-31T11:21:49.424Z,97663.50
2018-01-31T11:24:18.422Z,97651.72
2018-01-31T11:26:47.441Z,97652.97
2018-01-31T11:29:15.693Z,97641.22
2018-01-31T11:31:44.697Z,97608.84
2018-01-31T11:34:12.963Z,97625.22
2018-01-31T11:36:41.977Z,97618.91
2018-01-31T11:39:10.227Z,97624.41
2018-01-31T11:41:38.462Z,97609.67
2018-01-31T11:44:06.750Z,97614.73
2018-01-31T11:46:35.042Z,97613.89
2018-01-31T11:49:04.077Z,97597.50
2018-01-31T11:51:32.345Z,97583.20
2018-01-31T11:54:00.622Z,97587.80
2018-01-31T11:56:28.888Z,97558.36
2018-01-31T11:58:57.189Z,97533.14
2018-01-31T12:01:25.519Z,97541.48
2018-01-31T12:03:54.563Z,97533.95
2018-01-31T12:06:22.872Z,97552.45
2018-01-31T12:08:51.143Z,97552.45
2018-01-31T12:11:19.432Z,97548.68
2018-01-31T12:17:11.524Z,97512.59
2018-01-31T12:20:06.560Z,97514.69
2018-01-31T12:22:52.628Z,97502.48
2018-01-31T12:25:38.632Z,97505.03
2018-01-31T12:28:24.519Z,97491.99
2018-01-31T12:31:10.463Z,97479.38
2018-01-31T12:33:57.130Z,97486.50
2018-01-31T12:36:43.097Z,97475.57
2018-01-31T12:39:10.565Z,97473.06
2018-01-31T12:41:38.019Z,97465.90
2018-01-31T12:44:05.491Z,97449.92
2018-01-31T12:46:51.745Z,97470.53
2018-01-31T12:49:37.778Z,97462.95
2018-01-31T12:52:34.543Z,97449.06
2018-01-31T12:55:20.466Z,97446.11
2018-01-31T12:58:07.330Z,97445.70
2018-01-31T13:00:52.267Z,97436.00
2018-01-31T13:03:43.983Z,97432.23
2018-01-31T13:06:29.937Z,97405.31
2018-01-31T13:09:16.745Z,97401.09
2018-01-31T13:12:02.829Z,97404.45
2018-01-31T13:14:47.296Z,97385.95
2018-01-31T13:20:44.279Z,97388.01
2018-01-31T13:23:12.519Z,97361.94
2018-01-31T13:25:58.515Z,97365.30
2018-01-31T13:32:07.619Z,97369.91
2018-01-31T13:34:53.521Z,97352.26
2018-01-31T13:41:06.658Z,97340.08
2018-01-31T13:43:52.424Z,97348.05
2018-01-31T13:46:39.252Z,97339.23
2018-01-31T13:49:25.292Z,97319.88
2018-01-31T13:52:16.808Z,97316.55
2018-01-31T13:55:02.830Z,97322.00
2018-01-31T13:57:49.546Z,97322.00
2018-01-31T14:00:33.190Z,97311.47
2018-01-31T14:03:19.022Z,97316.56
2018-01-31T14:06:04.951Z,97316.99
2018-01-31T14:08:50.791Z,97303.52
2018-01-31T14:11:36.884Z,97298.90
2018-01-31T14:14:22.888Z,97295.13
2018-01-31T14:17:08.863Z,97286.30
2018-01-31T14:19:55.031Z,97262.33
2018-01-31T14:22:40.847Z,97273.26
2018-01-31T14:25:26.765Z,97262.32
2018-01-31T14:31:25.229Z,97236.65
2018-01-31T14:34:11.151Z,97218.96
2018-01-31T14:36:38.617Z,97206.77
2018-01-31T14:39:06.097Z,97218.09
2018-01-31T14:41:34.322Z,97221.48
2018-01-31T14:44:01.783Z,97214.73
2018-01-31T14:46:29.256Z,97221.85
2018-01-31T14:48:56.734Z,97212.16
2018-01-31T14:51:24.188Z,97204.59
2018-01-31T14:53:51.656Z,97194.93
2018-01-31T14:56:19.891Z,97205.42
2018-01-31T14:58:47.357Z,97194.09
2018-01-31T15:01:14.857Z,97210.94
2018-01-31T15:03:42.291Z,97191.95
2018-01-31T15:06:09.754Z,97178.12
2018-01-31T15:08:37.986Z,97202.91
2018-01-31T15:11:05.471Z,97192.82
2018-01-31T15:13:32.929Z,97177.68
2018-01-31T15:16:00.380Z,97166.32
2018-01-31T15:18:27.857Z,97162.12
2018-01-31T15:20:56.081Z,97165.94
2018-01-31T15:23:23.544Z,97159.22
2018-01-31T15:25:51.011Z,97157.55
2018-01-31T15:28:18.486Z,97163.02
2018-01-31T15:30:45.938Z,97154.13
2018-01-31T15:33:13.408Z,97134.84
2018-01-31T15:35:40.869Z,97121.38
2018-01-31T15:38:08.335Z,97123.05
2018-01-31T15:40:35.799Z,97120.14
2018-01-31T15:43:04.028Z,97103.73
2018-01-31T15:45:31.485Z,97111.75
2018-01-31T15:47:58.957Z,97105.46
2018-01-31T15:50:26.433Z,97081.92
2018-01-31T15:52:53.899Z,97076.92
2018-01-31T15:55:22.132Z,97094.59
2018-01-31T15:57:49.597Z,97075.30
2018-01-31T16:00:17.067Z,97068.63
2018-01-31T16:02:44.510Z,97056.05
2018-01-31T16:05:11.966Z,97052.72
2018-01-31T16:07:39.419Z,97058.64
2018-01-31T16:10:06.875Z,97049.89
2018-01-31T16:12:34.336Z,97042.36
2018-01-31T16:15:01.810Z,97039.52
2018-01-31T16:17:30.090Z,97031.10
2018-01-31T16:20:16.067Z,97025.30
2018-01-31T16:22:44.312Z,97029.59
2018-01-31T16:25:12.578Z,97040.05
2018-01-31T16:27:58.522Z,97036.36
2018-01-31T16:30:26.770Z,97043.13
2018-01-31T16:33:12.824Z,97035.19
2018-01-31T16:35:41.090Z,97043.25
2018-01-31T16:38:10.109Z,97042.83
2018-01-31T16:40:38.372Z,97038.59
2018-01-31T16:43:06.630Z,97037.38
2018-01-31T16:45:35.696Z,97024.41
2018-01-31T16:48:03.959Z,97026.53
2018-01-31T16:50:32.288Z,97014.41
2018-01-31T16:53:00.604Z,97011.03
2018-01-31T16:55:28.860Z,96999.70
2018-01-31T16:57:57.130Z,96987.94
2018-01-31T17:00:25.363Z,96977.42
2018-01-31T17:02:53.641Z,96979.98
2018-01-31T17:05:22.657Z,96979.92
2018-01-31T17:07:50.912Z,96977.48
2018-01-31T17:10:19.930Z,96974.97
2018-01-31T17:12:48.227Z,96968.58
2018-01-31T17:15:16.537Z,96971.98
2018-01-31T17:17:44.798Z,96961.45
2018-01-31T17:20:13.070Z,96955.17
2018-01-31T17:22:42.070Z,96956.82
2018-01-31T17:25:10.328Z,96952.27
2018-01-31T17:27:38.608Z,96949.70
2018-01-31T17:30:06.863Z,96953.07
2018-01-31T17:32:35.160Z,96947.66
2018-01-31T17:35:03.427Z,96950.52
2018-01-31T17:37:31.794Z,96940.90
2018-01-31T17:40:00.061Z,96945.52
2018-01-31T17:42:28.302Z,96940.05
2018-01-31T17:44:57.367Z,96933.38
2018-01-31T17:47:25.960Z,96916.59
2018-01-31T17:49:54.292Z,96929.22
2018-01-31T17:52:22.630Z,96931.71
2018-01-31T17:54:50.946Z,96922.13
2018-01-31T17:57:19.303Z,96927.61
2018-01-31T17:59:47.638Z,96922.61
2018-01-31T18:02:15.945Z,96925.59
2018-01-31T18:04:45.031Z,96908.41
2018-01-31T18:07:13.282Z,96906.30
2018-01-31T18:09:41.528Z,96918.47
2018-01-31T18:12:09.774Z,96915.17
2018-01-31T18:14:38.776Z,96918.55
2018-01-31T18:17:07.027Z,96879.55
2018-01-31T18:19:35.261Z,96908.91
2018-01-31T18:22:03.510Z,96902.27
2018-01-31T18:24:31.746Z,96897.66
2018-01-31T18:27:00.007Z,96891.77
2018-01-31T18:29:29.145Z,96890.92
2018-01-31T18:31:58.149Z,96886.77
2018-01-31T18:34:26.394Z,96881.31
2018-01-31T18:36:55.435Z,96884.27
2018-01-31T18:39:23.706Z,96862.87
2018-01-31T18:41:51.973Z,96877.58
2018-01-31T18:44:20.214Z,96862.95
2018-01-31T18:46:48.465Z,96868.40
2018-01-31T18:49:16.709Z,96856.65
2018-01-31T18:51:44.954Z,96854.15
2018-01-31T18:54:14.009Z,96849.55
2018-01-31T18:56:42.254Z,96845.36
2018-01-31T18:59:10.500Z,96845.36
2018-01-31T19:01:39.763Z,96838.23
2018-01-31T19:04:08.011Z,96839.94
2018-01-31T19:06:36.306Z,96836.53
2018-01-31T19:09:04.548Z,96832.32
2018-01-31T19:11:32.814Z,96834.88
2018-01-31T19:14:01.060Z,96824.41
2018-01-31T19:16:30.083Z,96831.97
2018-01-31T19:18:58.374Z,96822.73
2018-01-31T19:21:27.908Z,96815.19
2018-01-31T19:23:56.182Z,96811.46
2018-01-31T19:26:29.233Z,96803.08
2018-01-31T19:28:57.463Z,96805.98
2018-01-31T19:31:25.763Z,96804.35
2018-01-31T19:33:54.784Z,96800.14
2018-01-31T19:36:23.117Z,96802.23
2018-01-31T19:38:51.420Z,96788.39
2018-01-31T19:41:20.425Z,96786.70
2018-01-31T19:43:48.688Z,96790.48
2018-01-31T19:46:17.696Z,96800.97
2018-01-31T19:48:46.249Z,96787.16
2018-01-31T19:51:14.532Z,96782.53
2018-01-31T19:53:43.593Z,96776.66
2018-01-31T19:56:11.888Z,96774.56
2018-01-31T19:58:41.702Z,96789.67
2018-01-31T20:01:09.988Z,96772.96
2018-01-31T20:03:38.276Z,96767.91
2018-01-31T20:06:07.373Z,96768.77
2018-01-31T20:08:36.427Z,96766.65
2018-01-31T20:11:04.710Z,96756.60
2018-01-31T20:13:32.951Z,96759.13
2018-01-31T20:16:02.150Z,96765.84
2018-01-31T20:18:30.401Z,96766.69
2018-01-31T20:20:58.647Z,96765.01
2018-01-31T20:23:27.711Z,96770.47
2018-01-31T20:25:56.016Z,96761.25
2018-01-31T20:28:24.288Z,96762.49
2018-01-31T20:30:52.538Z,96769.23
2018-01-31T20:33:20.779Z,96752.90
2018-01-31T20:35:49.030Z,96759.61
2018-01-31T20:38:18.088Z,96754.59
2018-01-31T20:40:46.374Z,96744.94
2018-01-31T20:43:14.654Z,96752.46
2018-01-31T20:45:42.951Z,96743.69
2018-01-31T20:48:11.163Z,96736.56
2018-01-31T20:50:39.415Z,96742.45
2018-01-31T20:53:07.717Z,96737.42
2018-01-31T20:55:35.994Z,96745.38
2018-01-31T20:58:04.291Z,96719.81
2018-01-31T21:00:32.616Z,96704.72
2018-01-31T21:03:01.693Z,96714.36
2018-01-31T21:05:30.779Z,96712.30
2018-01-31T21:07:59.033Z,96710.61
2018-01-31T21:10:27.350Z,96716.89
2018-01-31T21:12:56.371Z,96711.45
2018-01-31T21:15:24.695Z,96709.37
2018-01-31T21:17:52.997Z,96715.65
2018-01-31T21:20:22.075Z,96709.34
2018-01-31T21:22:51.101Z,96707.71
2018-01-31T21:25:19.410Z,96702.25
2018-01-31T21:27:47.679Z,96694.33
2018-01-31T21:30:16.015Z,96690.92
2018-01-31T21:32:45.055Z,96685.51
2018-01-31T21:35:13.306Z,96691.38
2018-01-31T21:37:41.618Z,96685.11
2018-01-31T21:40:09.884Z,96704.80
2018-01-31T21:42:38.202Z,96698.05
2018-01-31T21:45:06.500Z,96701.45
2018-01-31T21:47:35.581Z,96695.58
2018-01-31T21:50:04.676Z,96679.69
2018-01-31T21:52:33.716Z,96692.27
2018-01-31T21:55:02.226Z,96680.98
2018-01-31T21:57:49.248Z,96667.59
2018-01-31T22:00:17.558Z,96687.67
2018-01-31T22:02:45.842Z,96663.05
2018-01-31T22:05:14.133Z,96688.98
2018-01-31T22:07:42.450Z,96685.22
2018-01-31T22:10:10.835Z,96686.03
2018-01-31T22:12:39.227Z,96689.42
2018-01-31T22:15:08.406Z,96689.42
2018-01-31T22:17:36.761Z,96688.59
2018-01-31T22:20:05.148Z,96683.16
2018-01-31T22:22:33.608Z,96686.91
2018-01-31T22:25:02.050Z,96681.49
2018-01-31T22:27:31.250Z,96678.16
2018-01-31T22:30:00.532Z,96673.16
2018-01-31T22:32:29.003Z,96670.65
2018-01-31T22:34:57.366Z,96683.21
2018-01-31T22:37:25.667Z,96671.47
2018-01-31T22:39:54.721Z,96672.30
2018-01-31T22:42:22.987Z,96675.22
2018-01-31T22:44:51.319Z,96666.43
2018-01-31T22:47:20.355Z,96664.38
2018-01-31T22:49:48.658Z,96661.44
2018-01-31T22:52:16.968Z,96655.16
2018-01-31T22:54:46.053Z,96665.64
2018-01-31T22:57:14.313Z,96658.53
2018-01-31T22:59:42.600Z,96655.19
2018-01-31T23:02:10.898Z,96651.83
2018-01-31T23:04:39.916Z,96646.82
2018-01-31T23:07:08.181Z,96651.41
2018-01-31T23:09:36.462Z,96654.77
2018-01-31T23:12:10.134Z,96655.60
2018-01-31T23:14:44.799Z,96655.63
2018-01-31T23:17:18.640Z,96646.43
2018-01-31T23:19:46.929Z,96650.17
2018-01-31T23:22:15.195Z,96653.13
2018-01-31T23:24:43.454Z,96640.16
2018-01-31T23:27:11.771Z,96645.18
2018-01-31T23:29:40.963Z,96643.47
2018-01-31T23:32:09.278Z,96645.18
2018-01-31T23:34:37.540Z,96640.61
2018-01-31T23:37:05.796Z,96645.63
2018-01-31T23:39:34.824Z,96654.81
2018-01-31T23:42:03.074Z,96643.50
2018-01-31T23:44:32.146Z,96641.87
2018-01-31T23:47:00.414Z,96635.17
2018-01-31T23:49:29.440Z,96641.00
2018-01-31T23:51:58.475Z,96641.84
2018-01-31T23:54:26.740Z,96631.83
2018-01-31T23:56:55.004Z,96638.92
2018-01-31T23:59:23.274Z,96638.92
